sensor_id;sensor_type;location;lat;lon;timestamp;P1;durP1;ratioP1;P2;durP2;ratioP2
68757;SDS011;55747;51.998;4.466;2023-02-15T00:00:15;136.75;;;62.13;;
68757;SDS011;55747;51.998;4.466;2023-02-15T00:02:41;132.10;;;60.25;;
68757;SDS011;55747;51.998;4.466;2023-02-15T00:05:06;134.98;;;60.20;;
68757;SDS011;55747;51.998;4.466;2023-02-15T00:07:32;141.35;;;62.80;;
68757;SDS011;55747;51.998;4.466;2023-02-15T00:09:58;136.85;;;60.75;;
68757;SDS011;55747;51.998;4.466;2023-02-15T00:12:25;132.98;;;59.92;;
68757;SDS011;55747;51.998;4.466;2023-02-15T00:14:51;129.00;;;58.25;;
68757;SDS011;55747;51.998;4.466;2023-02-15T00:17:16;133.73;;;59.72;;
68757;SDS011;55747;51.998;4.466;2023-02-15T00:19:42;139.15;;;60.38;;
68757;SDS011;55747;51.998;4.466;2023-02-15T00:22:07;133.50;;;61.92;;
68757;SDS011;55747;51.998;4.466;2023-02-15T00:24:33;130.27;;;60.65;;
68757;SDS011;55747;51.998;4.466;2023-02-15T00:26:58;135.43;;;60.95;;
68757;SDS011;55747;51.998;4.466;2023-02-15T00:29:24;139.45;;;60.35;;
68757;SDS011;55747;51.998;4.466;2023-02-15T00:31:50;133.60;;;60.10;;
68757;SDS011;55747;51.998;4.466;2023-02-15T00:34:18;138.13;;;61.20;;
68757;SDS011;55747;51.998;4.466;2023-02-15T00:36:45;142.27;;;61.13;;
68757;SDS011;55747;51.998;4.466;2023-02-15T00:39:11;140.80;;;60.30;;
68757;SDS011;55747;51.998;4.466;2023-02-15T00:41:37;133.02;;;57.47;;
68757;SDS011;55747;51.998;4.466;2023-02-15T00:44:03;131.80;;;57.80;;
68757;SDS011;55747;51.998;4.466;2023-02-15T00:46:29;124.82;;;55.60;;
68757;SDS011;55747;51.998;4.466;2023-02-15T00:48:55;130.05;;;58.15;;
68757;SDS011;55747;51.998;4.466;2023-02-15T00:51:21;139.77;;;60.28;;
68757;SDS011;55747;51.998;4.466;2023-02-15T00:53:46;137.50;;;59.63;;
68757;SDS011;55747;51.998;4.466;2023-02-15T00:56:12;132.32;;;58.30;;
68757;SDS011;55747;51.998;4.466;2023-02-15T00:58:37;135.18;;;61.83;;
68757;SDS011;55747;51.998;4.466;2023-02-15T01:01:04;133.50;;;59.97;;
68757;SDS011;55747;51.998;4.466;2023-02-15T01:03:34;140.70;;;59.88;;
68757;SDS011;55747;51.998;4.466;2023-02-15T01:06:00;142.90;;;58.90;;
68757;SDS011;55747;51.998;4.466;2023-02-15T01:08:26;134.65;;;59.15;;
68757;SDS011;55747;51.998;4.466;2023-02-15T01:10:52;137.93;;;59.22;;
68757;SDS011;55747;51.998;4.466;2023-02-15T01:13:18;143.45;;;61.78;;
68757;SDS011;55747;51.998;4.466;2023-02-15T01:15:44;138.20;;;60.63;;
68757;SDS011;55747;51.998;4.466;2023-02-15T01:18:10;135.35;;;59.65;;
68757;SDS011;55747;51.998;4.466;2023-02-15T01:20:36;143.32;;;62.05;;
68757;SDS011;55747;51.998;4.466;2023-02-15T01:23:05;138.30;;;61.50;;
68757;SDS011;55747;51.998;4.466;2023-02-15T01:25:32;145.40;;;62.03;;
68757;SDS011;55747;51.998;4.466;2023-02-15T01:28:04;145.35;;;61.67;;
68757;SDS011;55747;51.998;4.466;2023-02-15T01:30:30;147.50;;;62.63;;
68757;SDS011;55747;51.998;4.466;2023-02-15T01:32:55;142.60;;;60.17;;
68757;SDS011;55747;51.998;4.466;2023-02-15T01:35:21;142.05;;;61.85;;
68757;SDS011;55747;51.998;4.466;2023-02-15T01:37:46;143.10;;;62.05;;
68757;SDS011;55747;51.998;4.466;2023-02-15T01:40:12;150.68;;;63.63;;
68757;SDS011;55747;51.998;4.466;2023-02-15T01:42:40;148.70;;;63.53;;
68757;SDS011;55747;51.998;4.466;2023-02-15T01:45:14;147.35;;;62.03;;
68757;SDS011;55747;51.998;4.466;2023-02-15T01:47:45;135.18;;;59.45;;
68757;SDS011;55747;51.998;4.466;2023-02-15T01:53:09;153.00;;;64.30;;
68757;SDS011;55747;51.998;4.466;2023-02-15T01:55:47;147.52;;;59.60;;
68757;SDS011;55747;51.998;4.466;2023-02-15T01:58:17;145.60;;;62.30;;
68757;SDS011;55747;51.998;4.466;2023-02-15T02:00:43;151.95;;;65.15;;
68757;SDS011;55747;51.998;4.466;2023-02-15T02:03:09;143.75;;;61.75;;
68757;SDS011;55747;51.998;4.466;2023-02-15T02:05:35;143.57;;;61.72;;
68757;SDS011;55747;51.998;4.466;2023-02-15T02:08:03;152.45;;;63.83;;
68757;SDS011;55747;51.998;4.466;2023-02-15T02:10:29;152.25;;;63.10;;
68757;SDS011;55747;51.998;4.466;2023-02-15T02:12:56;137.68;;;58.65;;
68757;SDS011;55747;51.998;4.466;2023-02-15T02:15:29;144.45;;;58.97;;
68757;SDS011;55747;51.998;4.466;2023-02-15T02:18:11;130.50;;;55.10;;
68757;SDS011;55747;51.998;4.466;2023-02-15T02:23:42;122.20;;;52.45;;
68757;SDS011;55747;51.998;4.466;2023-02-15T02:34:05;94.63;;;45.50;;
68757;SDS011;55747;51.998;4.466;2023-02-15T02:36:48;93.10;;;44.42;;
68757;SDS011;55747;51.998;4.466;2023-02-15T02:41:56;99.43;;;46.43;;
68757;SDS011;55747;51.998;4.466;2023-02-15T02:44:31;122.50;;;53.15;;
68757;SDS011;55747;51.998;4.466;2023-02-15T02:49:58;124.95;;;53.85;;
68757;SDS011;55747;51.998;4.466;2023-02-15T02:52:41;115.50;;;51.47;;
68757;SDS011;55747;51.998;4.466;2023-02-15T02:57:51;125.82;;;54.50;;
68757;SDS011;55747;51.998;4.466;2023-02-15T03:00:23;140.27;;;58.58;;
68757;SDS011;55747;51.998;4.466;2023-02-15T03:02:53;127.65;;;53.45;;
68757;SDS011;55747;51.998;4.466;2023-02-15T03:05:23;121.65;;;53.15;;
68757;SDS011;55747;51.998;4.466;2023-02-15T03:07:52;132.82;;;57.33;;
68757;SDS011;55747;51.998;4.466;2023-02-15T03:10:19;141.88;;;56.85;;
68757;SDS011;55747;51.998;4.466;2023-02-15T03:12:47;131.98;;;56.65;;
68757;SDS011;55747;51.998;4.466;2023-02-15T03:15:18;125.53;;;55.30;;
68757;SDS011;55747;51.998;4.466;2023-02-15T03:17:47;127.55;;;54.53;;
68757;SDS011;55747;51.998;4.466;2023-02-15T03:20:18;126.30;;;56.38;;
68757;SDS011;55747;51.998;4.466;2023-02-15T03:23:00;131.35;;;56.00;;
68757;SDS011;55747;51.998;4.466;2023-02-15T03:25:33;130.55;;;56.53;;
68757;SDS011;55747;51.998;4.466;2023-02-15T03:28:03;127.57;;;54.03;;
68757;SDS011;55747;51.998;4.466;2023-02-15T03:30:33;118.82;;;53.00;;
68757;SDS011;55747;51.998;4.466;2023-02-15T03:33:00;118.65;;;51.88;;
68757;SDS011;55747;51.998;4.466;2023-02-15T03:35:31;111.90;;;49.90;;
68757;SDS011;55747;51.998;4.466;2023-02-15T03:38:02;103.57;;;48.15;;
68757;SDS011;55747;51.998;4.466;2023-02-15T03:40:33;107.07;;;48.38;;
68757;SDS011;55747;51.998;4.466;2023-02-15T03:43:31;105.10;;;47.42;;
68757;SDS011;55747;51.998;4.466;2023-02-15T03:48:52;105.20;;;46.38;;
68757;SDS011;55747;51.998;4.466;2023-02-15T03:51:21;104.82;;;49.00;;
68757;SDS011;55747;51.998;4.466;2023-02-15T03:54:13;110.78;;;50.13;;
68757;SDS011;55747;51.998;4.466;2023-02-15T03:57:02;125.53;;;52.88;;
68757;SDS011;55747;51.998;4.466;2023-02-15T03:59:47;119.05;;;51.25;;
68757;SDS011;55747;51.998;4.466;2023-02-15T04:02:34;126.10;;;52.63;;
68757;SDS011;55747;51.998;4.466;2023-02-15T04:05:05;113.18;;;52.15;;
68757;SDS011;55747;51.998;4.466;2023-02-15T04:07:30;122.88;;;54.65;;
68757;SDS011;55747;51.998;4.466;2023-02-15T04:09:56;124.82;;;52.25;;
68757;SDS011;55747;51.998;4.466;2023-02-15T04:12:40;112.63;;;51.65;;
68757;SDS011;55747;51.998;4.466;2023-02-15T04:15:05;112.65;;;51.30;;
68757;SDS011;55747;51.998;4.466;2023-02-15T04:17:50;122.60;;;53.03;;
68757;SDS011;55747;51.998;4.466;2023-02-15T04:20:15;119.50;;;51.97;;
68757;SDS011;55747;51.998;4.466;2023-02-15T04:22:59;123.97;;;51.60;;
68757;SDS011;55747;51.998;4.466;2023-02-15T04:25:43;123.43;;;51.85;;
68757;SDS011;55747;51.998;4.466;2023-02-15T04:28:08;123.57;;;52.40;;
68757;SDS011;55747;51.998;4.466;2023-02-15T04:30:34;122.07;;;52.20;;
68757;SDS011;55747;51.998;4.466;2023-02-15T04:32:59;117.75;;;51.47;;
68757;SDS011;55747;51.998;4.466;2023-02-15T04:35:24;113.00;;;50.60;;
68757;SDS011;55747;51.998;4.466;2023-02-15T04:37:50;121.03;;;54.03;;
68757;SDS011;55747;51.998;4.466;2023-02-15T04:40:16;122.25;;;52.40;;
68757;SDS011;55747;51.998;4.466;2023-02-15T04:42:42;116.28;;;50.65;;
68757;SDS011;55747;51.998;4.466;2023-02-15T04:45:08;118.47;;;52.17;;
68757;SDS011;55747;51.998;4.466;2023-02-15T04:47:33;122.90;;;54.65;;
68757;SDS011;55747;51.998;4.466;2023-02-15T04:49:59;121.35;;;54.15;;
68757;SDS011;55747;51.998;4.466;2023-02-15T04:52:24;128.35;;;54.53;;
68757;SDS011;55747;51.998;4.466;2023-02-15T04:54:50;137.57;;;55.80;;
68757;SDS011;55747;51.998;4.466;2023-02-15T04:57:15;129.50;;;54.30;;
68757;SDS011;55747;51.998;4.466;2023-02-15T04:59:40;123.55;;;54.13;;
68757;SDS011;55747;51.998;4.466;2023-02-15T05:02:05;134.52;;;55.05;;
68757;SDS011;55747;51.998;4.466;2023-02-15T05:04:31;137.05;;;57.58;;
68757;SDS011;55747;51.998;4.466;2023-02-15T05:06:56;143.70;;;57.28;;
68757;SDS011;55747;51.998;4.466;2023-02-15T05:09:22;138.90;;;56.20;;
68757;SDS011;55747;51.998;4.466;2023-02-15T05:11:47;144.68;;;59.30;;
68757;SDS011;55747;51.998;4.466;2023-02-15T05:14:13;153.98;;;59.83;;
68757;SDS011;55747;51.998;4.466;2023-02-15T05:16:38;156.80;;;61.28;;
68757;SDS011;55747;51.998;4.466;2023-02-15T05:19:04;147.27;;;60.17;;
68757;SDS011;55747;51.998;4.466;2023-02-15T05:21:29;143.32;;;60.67;;
68757;SDS011;55747;51.998;4.466;2023-02-15T05:23:54;147.50;;;59.45;;
68757;SDS011;55747;51.998;4.466;2023-02-15T05:26:20;139.25;;;58.15;;
68757;SDS011;55747;51.998;4.466;2023-02-15T05:29:07;131.85;;;54.40;;
68757;SDS011;55747;51.998;4.466;2023-02-15T05:31:32;147.48;;;58.05;;
68757;SDS011;55747;51.998;4.466;2023-02-15T05:33:59;133.85;;;56.10;;
68757;SDS011;55747;51.998;4.466;2023-02-15T05:36:24;138.48;;;56.35;;
68757;SDS011;55747;51.998;4.466;2023-02-15T05:38:50;134.25;;;54.42;;
68757;SDS011;55747;51.998;4.466;2023-02-15T05:41:15;134.23;;;54.22;;
68757;SDS011;55747;51.998;4.466;2023-02-15T05:43:40;125.47;;;52.42;;
68757;SDS011;55747;51.998;4.466;2023-02-15T05:46:06;119.72;;;52.85;;
68757;SDS011;55747;51.998;4.466;2023-02-15T05:48:31;120.55;;;51.65;;
68757;SDS011;55747;51.998;4.466;2023-02-15T05:51:04;124.93;;;51.53;;
68757;SDS011;55747;51.998;4.466;2023-02-15T05:53:31;121.75;;;52.88;;
68757;SDS011;55747;51.998;4.466;2023-02-15T05:55:58;131.05;;;51.97;;
68757;SDS011;55747;51.998;4.466;2023-02-15T05:58:25;121.78;;;51.85;;
68757;SDS011;55747;51.998;4.466;2023-02-15T06:00:54;128.93;;;52.72;;
68757;SDS011;55747;51.998;4.466;2023-02-15T06:03:20;119.65;;;53.45;;
68757;SDS011;55747;51.998;4.466;2023-02-15T06:05:46;131.15;;;54.25;;
68757;SDS011;55747;51.998;4.466;2023-02-15T06:08:11;127.75;;;54.70;;
68757;SDS011;55747;51.998;4.466;2023-02-15T06:10:36;135.80;;;55.72;;
68757;SDS011;55747;51.998;4.466;2023-02-15T06:13:02;129.55;;;54.38;;
68757;SDS011;55747;51.998;4.466;2023-02-15T06:15:27;139.85;;;55.95;;
68757;SDS011;55747;51.998;4.466;2023-02-15T06:17:53;132.38;;;53.55;;
68757;SDS011;55747;51.998;4.466;2023-02-15T06:20:18;126.45;;;52.70;;
68757;SDS011;55747;51.998;4.466;2023-02-15T06:22:44;123.40;;;51.83;;
68757;SDS011;55747;51.998;4.466;2023-02-15T06:25:09;137.70;;;55.53;;
68757;SDS011;55747;51.998;4.466;2023-02-15T06:27:36;137.00;;;54.47;;
68757;SDS011;55747;51.998;4.466;2023-02-15T06:30:02;131.27;;;52.42;;
68757;SDS011;55747;51.998;4.466;2023-02-15T06:32:28;130.70;;;54.47;;
68757;SDS011;55747;51.998;4.466;2023-02-15T06:34:53;136.00;;;55.00;;
68757;SDS011;55747;51.998;4.466;2023-02-15T06:37:19;139.55;;;54.70;;
68757;SDS011;55747;51.998;4.466;2023-02-15T06:39:44;128.10;;;52.90;;
68757;SDS011;55747;51.998;4.466;2023-02-15T06:42:09;130.30;;;54.83;;
68757;SDS011;55747;51.998;4.466;2023-02-15T06:44:35;135.57;;;54.28;;
68757;SDS011;55747;51.998;4.466;2023-02-15T06:47:00;140.15;;;56.88;;
68757;SDS011;55747;51.998;4.466;2023-02-15T06:49:25;137.15;;;54.58;;
68757;SDS011;55747;51.998;4.466;2023-02-15T06:51:51;134.88;;;55.40;;
68757;SDS011;55747;51.998;4.466;2023-02-15T06:54:16;135.27;;;55.47;;
68757;SDS011;55747;51.998;4.466;2023-02-15T06:56:42;142.93;;;57.63;;
68757;SDS011;55747;51.998;4.466;2023-02-15T06:59:08;140.98;;;56.08;;
68757;SDS011;55747;51.998;4.466;2023-02-15T07:01:34;140.98;;;57.03;;
68757;SDS011;55747;51.998;4.466;2023-02-15T07:03:59;144.65;;;58.67;;
68757;SDS011;55747;51.998;4.466;2023-02-15T07:06:24;124.47;;;54.88;;
68757;SDS011;55747;51.998;4.466;2023-02-15T07:08:50;144.93;;;58.53;;
68757;SDS011;55747;51.998;4.466;2023-02-15T07:11:15;137.07;;;58.17;;
68757;SDS011;55747;51.998;4.466;2023-02-15T07:13:59;140.23;;;58.70;;
68757;SDS011;55747;51.998;4.466;2023-02-15T07:16:25;157.20;;;59.58;;
68757;SDS011;55747;51.998;4.466;2023-02-15T07:18:50;135.02;;;57.05;;
68757;SDS011;55747;51.998;4.466;2023-02-15T07:21:15;154.90;;;61.53;;
68757;SDS011;55747;51.998;4.466;2023-02-15T07:23:41;155.27;;;62.28;;
68757;SDS011;55747;51.998;4.466;2023-02-15T07:26:07;159.32;;;64.40;;
68757;SDS011;55747;51.998;4.466;2023-02-15T07:28:32;151.55;;;61.50;;
68757;SDS011;55747;51.998;4.466;2023-02-15T07:31:01;155.90;;;63.58;;
68757;SDS011;55747;51.998;4.466;2023-02-15T07:33:27;153.75;;;63.65;;
68757;SDS011;55747;51.998;4.466;2023-02-15T07:35:54;157.32;;;63.70;;
68757;SDS011;55747;51.998;4.466;2023-02-15T07:38:26;161.73;;;64.43;;
68757;SDS011;55747;51.998;4.466;2023-02-15T07:40:57;156.63;;;65.40;;
68757;SDS011;55747;51.998;4.466;2023-02-15T07:43:23;157.15;;;62.72;;
68757;SDS011;55747;51.998;4.466;2023-02-15T07:45:48;150.70;;;64.07;;
68757;SDS011;55747;51.998;4.466;2023-02-15T07:48:14;157.25;;;66.30;;
68757;SDS011;55747;51.998;4.466;2023-02-15T07:50:39;155.35;;;66.80;;
68757;SDS011;55747;51.998;4.466;2023-02-15T07:53:04;146.48;;;64.97;;
68757;SDS011;55747;51.998;4.466;2023-02-15T07:55:30;150.27;;;63.78;;
68757;SDS011;55747;51.998;4.466;2023-02-15T07:57:55;159.43;;;66.63;;
68757;SDS011;55747;51.998;4.466;2023-02-15T08:00:22;159.05;;;67.45;;
68757;SDS011;55747;51.998;4.466;2023-02-15T08:02:51;164.93;;;68.55;;
68757;SDS011;55747;51.998;4.466;2023-02-15T08:05:38;150.23;;;65.47;;
68757;SDS011;55747;51.998;4.466;2023-02-15T08:08:08;148.77;;;65.43;;
68757;SDS011;55747;51.998;4.466;2023-02-15T08:10:56;149.75;;;63.83;;
68757;SDS011;55747;51.998;4.466;2023-02-15T08:13:42;139.60;;;63.95;;
68757;SDS011;55747;51.998;4.466;2023-02-15T08:16:18;141.20;;;62.13;;
68757;SDS011;55747;51.998;4.466;2023-02-15T08:21:15;132.82;;;59.78;;
68757;SDS011;55747;51.998;4.466;2023-02-15T08:23:41;128.90;;;59.53;;
68757;SDS011;55747;51.998;4.466;2023-02-15T08:26:06;129.63;;;59.83;;
68757;SDS011;55747;51.998;4.466;2023-02-15T08:28:31;130.65;;;59.00;;
68757;SDS011;55747;51.998;4.466;2023-02-15T08:31:07;125.00;;;58.13;;
68757;SDS011;55747;51.998;4.466;2023-02-15T08:33:33;122.65;;;58.42;;
68757;SDS011;55747;51.998;4.466;2023-02-15T08:36:03;114.82;;;55.53;;
68757;SDS011;55747;51.998;4.466;2023-02-15T08:38:36;116.80;;;57.10;;
68757;SDS011;55747;51.998;4.466;2023-02-15T08:41:09;120.13;;;57.33;;
68757;SDS011;55747;51.998;4.466;2023-02-15T08:43:39;118.00;;;57.63;;
68757;SDS011;55747;51.998;4.466;2023-02-15T08:46:05;115.60;;;57.45;;
68757;SDS011;55747;51.998;4.466;2023-02-15T08:48:31;112.45;;;54.95;;
68757;SDS011;55747;51.998;4.466;2023-02-15T08:50:57;104.90;;;52.92;;
68757;SDS011;55747;51.998;4.466;2023-02-15T08:53:23;102.82;;;52.78;;
68757;SDS011;55747;51.998;4.466;2023-02-15T08:55:55;95.00;;;49.22;;
68757;SDS011;55747;51.998;4.466;2023-02-15T08:58:24;97.00;;;49.67;;
68757;SDS011;55747;51.998;4.466;2023-02-15T09:00:50;95.15;;;50.03;;
68757;SDS011;55747;51.998;4.466;2023-02-15T09:03:16;98.18;;;50.60;;
68757;SDS011;55747;51.998;4.466;2023-02-15T09:05:41;93.97;;;49.05;;
68757;SDS011;55747;51.998;4.466;2023-02-15T09:08:06;88.93;;;48.08;;
68757;SDS011;55747;51.998;4.466;2023-02-15T09:10:32;84.50;;;47.42;;
68757;SDS011;55747;51.998;4.466;2023-02-15T09:12:57;88.32;;;47.08;;
68757;SDS011;55747;51.998;4.466;2023-02-15T09:15:22;88.22;;;47.30;;
68757;SDS011;55747;51.998;4.466;2023-02-15T09:17:48;82.57;;;45.90;;
68757;SDS011;55747;51.998;4.466;2023-02-15T09:20:13;85.85;;;46.47;;
68757;SDS011;55747;51.998;4.466;2023-02-15T09:22:38;78.38;;;44.28;;
68757;SDS011;55747;51.998;4.466;2023-02-15T09:25:04;74.50;;;42.28;;
68757;SDS011;55747;51.998;4.466;2023-02-15T09:27:29;65.78;;;39.00;;
68757;SDS011;55747;51.998;4.466;2023-02-15T09:29:55;61.80;;;38.83;;
68757;SDS011;55747;51.998;4.466;2023-02-15T09:32:20;73.75;;;40.78;;
68757;SDS011;55747;51.998;4.466;2023-02-15T09:34:47;66.15;;;38.70;;
68757;SDS011;55747;51.998;4.466;2023-02-15T09:37:12;62.45;;;38.17;;
68757;SDS011;55747;51.998;4.466;2023-02-15T09:39:38;64.95;;;39.05;;
68757;SDS011;55747;51.998;4.466;2023-02-15T09:42:22;61.45;;;38.22;;
68757;SDS011;55747;51.998;4.466;2023-02-15T09:45:26;63.88;;;36.67;;
68757;SDS011;55747;51.998;4.466;2023-02-15T09:48:30;67.25;;;37.83;;
68757;SDS011;55747;51.998;4.466;2023-02-15T09:51:08;60.20;;;35.05;;
68757;SDS011;55747;51.998;4.466;2023-02-15T09:57:06;60.22;;;36.38;;
68757;SDS011;55747;51.998;4.466;2023-02-15T10:02:44;57.97;;;35.75;;
68757;SDS011;55747;51.998;4.466;2023-02-15T10:05:18;58.00;;;34.97;;
68757;SDS011;55747;51.998;4.466;2023-02-15T10:10:50;61.22;;;36.08;;
68757;SDS011;55747;51.998;4.466;2023-02-15T10:14:37;63.15;;;35.42;;
68757;SDS011;55747;51.998;4.466;2023-02-15T10:16:54;61.67;;;36.70;;
68757;SDS011;55747;51.998;4.466;2023-02-15T10:19:33;63.45;;;36.08;;
68757;SDS011;55747;51.998;4.466;2023-02-15T10:27:47;59.85;;;35.38;;
68757;SDS011;55747;51.998;4.466;2023-02-15T10:30:14;59.10;;;36.42;;
68757;SDS011;55747;51.998;4.466;2023-02-15T10:38:05;62.35;;;36.75;;
68757;SDS011;55747;51.998;4.466;2023-02-15T10:40:34;60.78;;;36.47;;
68757;SDS011;55747;51.998;4.466;2023-02-15T10:51:16;59.92;;;35.25;;
68757;SDS011;55747;51.998;4.466;2023-02-15T11:02:36;60.95;;;36.15;;
68757;SDS011;55747;51.998;4.466;2023-02-15T11:08:19;60.97;;;35.20;;
68757;SDS011;55747;51.998;4.466;2023-02-15T11:10:56;60.90;;;35.80;;
68757;SDS011;55747;51.998;4.466;2023-02-15T11:13:32;61.78;;;36.30;;
68757;SDS011;55747;51.998;4.466;2023-02-15T11:16:04;57.13;;;35.70;;
68757;SDS011;55747;51.998;4.466;2023-02-15T11:19:19;62.17;;;36.42;;
68757;SDS011;55747;51.998;4.466;2023-02-15T11:21:45;64.80;;;36.78;;
68757;SDS011;55747;51.998;4.466;2023-02-15T11:24:16;55.22;;;35.65;;
68757;SDS011;55747;51.998;4.466;2023-02-15T11:26:54;61.10;;;36.13;;
68757;SDS011;55747;51.998;4.466;2023-02-15T11:29:22;55.88;;;34.78;;
68757;SDS011;55747;51.998;4.466;2023-02-15T11:31:53;58.97;;;35.55;;
68757;SDS011;55747;51.998;4.466;2023-02-15T11:34:29;60.10;;;37.25;;
68757;SDS011;55747;51.998;4.466;2023-02-15T11:37:00;59.83;;;35.53;;
68757;SDS011;55747;51.998;4.466;2023-02-15T11:39:30;61.40;;;36.97;;
68757;SDS011;55747;51.998;4.466;2023-02-15T11:41:57;58.28;;;35.88;;
68757;SDS011;55747;51.998;4.466;2023-02-15T11:44:33;60.65;;;37.60;;
68757;SDS011;55747;51.998;4.466;2023-02-15T11:47:07;61.30;;;36.95;;
68757;SDS011;55747;51.998;4.466;2023-02-15T11:49:35;59.42;;;34.85;;
68757;SDS011;55747;51.998;4.466;2023-02-15T11:52:02;61.58;;;35.67;;
68757;SDS011;55747;51.998;4.466;2023-02-15T11:54:32;57.30;;;34.95;;
68757;SDS011;55747;51.998;4.466;2023-02-15T11:57:43;56.97;;;35.30;;
68757;SDS011;55747;51.998;4.466;2023-02-15T11:59:58;53.47;;;33.83;;
68757;SDS011;55747;51.998;4.466;2023-02-15T12:02:29;55.30;;;33.88;;
68757;SDS011;55747;51.998;4.466;2023-02-15T12:05:00;53.88;;;34.65;;
68757;SDS011;55747;51.998;4.466;2023-02-15T12:07:32;58.97;;;34.65;;
68757;SDS011;55747;51.998;4.466;2023-02-15T12:12:47;55.75;;;34.17;;
68757;SDS011;55747;51.998;4.466;2023-02-15T12:15:13;52.97;;;34.47;;
68757;SDS011;55747;51.998;4.466;2023-02-15T12:17:48;56.92;;;35.60;;
68757;SDS011;55747;51.998;4.466;2023-02-15T12:22:51;53.03;;;34.63;;
68757;SDS011;55747;51.998;4.466;2023-02-15T12:25:36;53.35;;;33.53;;
68757;SDS011;55747;51.998;4.466;2023-02-15T12:28:29;52.65;;;33.30;;
68757;SDS011;55747;51.998;4.466;2023-02-15T12:30:59;54.80;;;33.58;;
68757;SDS011;55747;51.998;4.466;2023-02-15T12:33:27;55.97;;;33.20;;
68757;SDS011;55747;51.998;4.466;2023-02-15T12:36:00;56.00;;;31.95;;
68757;SDS011;55747;51.998;4.466;2023-02-15T12:38:34;53.20;;;31.85;;
68757;SDS011;55747;51.998;4.466;2023-02-15T12:41:03;54.25;;;33.72;;
68757;SDS011;55747;51.998;4.466;2023-02-15T12:43:34;54.95;;;33.15;;
68757;SDS011;55747;51.998;4.466;2023-02-15T12:49:18;59.38;;;33.20;;
68757;SDS011;55747;51.998;4.466;2023-02-15T12:51:52;52.83;;;32.45;;
68757;SDS011;55747;51.998;4.466;2023-02-15T12:56:52;56.70;;;31.88;;
68757;SDS011;55747;51.998;4.466;2023-02-15T12:59:17;52.47;;;31.05;;
68757;SDS011;55747;51.998;4.466;2023-02-15T13:01:46;47.15;;;28.35;;
68757;SDS011;55747;51.998;4.466;2023-02-15T13:04:20;48.92;;;29.27;;
68757;SDS011;55747;51.998;4.466;2023-02-15T13:06:49;50.25;;;29.73;;
68757;SDS011;55747;51.998;4.466;2023-02-15T13:09:24;52.38;;;29.83;;
68757;SDS011;55747;51.998;4.466;2023-02-15T13:12:17;55.30;;;30.77;;
68757;SDS011;55747;51.998;4.466;2023-02-15T13:14:47;54.80;;;30.85;;
68757;SDS011;55747;51.998;4.466;2023-02-15T13:17:16;56.22;;;30.05;;
68757;SDS011;55747;51.998;4.466;2023-02-15T13:19:46;59.20;;;31.73;;
68757;SDS011;55747;51.998;4.466;2023-02-15T13:22:22;56.17;;;30.40;;
68757;SDS011;55747;51.998;4.466;2023-02-15T13:24:55;53.17;;;30.95;;
68757;SDS011;55747;51.998;4.466;2023-02-15T13:27:23;56.60;;;29.90;;
68757;SDS011;55747;51.998;4.466;2023-02-15T13:29:56;60.38;;;31.73;;
68757;SDS011;55747;51.998;4.466;2023-02-15T13:35:03;55.80;;;31.05;;
68757;SDS011;55747;51.998;4.466;2023-02-15T13:37:48;60.20;;;32.55;;
68757;SDS011;55747;51.998;4.466;2023-02-15T13:40:22;57.92;;;31.63;;
68757;SDS011;55747;51.998;4.466;2023-02-15T13:45:50;50.10;;;29.98;;
68757;SDS011;55747;51.998;4.466;2023-02-15T13:51:01;55.03;;;31.27;;
68757;SDS011;55747;51.998;4.466;2023-02-15T13:56:32;61.03;;;30.73;;
68757;SDS011;55747;51.998;4.466;2023-02-15T13:59:18;56.33;;;32.00;;
68757;SDS011;55747;51.998;4.466;2023-02-15T14:04:46;47.83;;;29.33;;
68757;SDS011;55747;51.998;4.466;2023-02-15T14:07:43;50.85;;;29.92;;
68757;SDS011;55747;51.998;4.466;2023-02-15T14:18:46;54.92;;;32.17;;
68757;SDS011;55747;51.998;4.466;2023-02-15T14:32:20;49.20;;;29.55;;
68757;SDS011;55747;51.998;4.466;2023-02-15T14:34:56;51.47;;;28.98;;
68757;SDS011;55747;51.998;4.466;2023-02-15T14:37:27;55.97;;;30.25;;
68757;SDS011;55747;51.998;4.466;2023-02-15T14:46:52;52.13;;;29.83;;
68757;SDS011;55747;51.998;4.466;2023-02-15T14:49:22;53.35;;;31.27;;
68757;SDS011;55747;51.998;4.466;2023-02-15T14:56:43;57.50;;;31.42;;
68757;SDS011;55747;51.998;4.466;2023-02-15T15:01:51;56.03;;;32.72;;
68757;SDS011;55747;51.998;4.466;2023-02-15T15:04:33;53.70;;;31.75;;
68757;SDS011;55747;51.998;4.466;2023-02-15T15:07:09;55.40;;;31.63;;
68757;SDS011;55747;51.998;4.466;2023-02-15T15:09:48;58.08;;;32.78;;
68757;SDS011;55747;51.998;4.466;2023-02-15T15:12:41;52.83;;;30.92;;
68757;SDS011;55747;51.998;4.466;2023-02-15T15:30:57;54.08;;;31.33;;
68757;SDS011;55747;51.998;4.466;2023-02-15T15:33:43;55.63;;;32.22;;
68757;SDS011;55747;51.998;4.466;2023-02-15T15:36:40;55.95;;;31.90;;
68757;SDS011;55747;51.998;4.466;2023-02-15T15:50:34;59.20;;;34.13;;
68757;SDS011;55747;51.998;4.466;2023-02-15T15:53:00;64.45;;;34.85;;
68757;SDS011;55747;51.998;4.466;2023-02-15T15:55:30;61.95;;;34.35;;
68757;SDS011;55747;51.998;4.466;2023-02-15T15:57:58;65.38;;;34.97;;
68757;SDS011;55747;51.998;4.466;2023-02-15T16:00:46;66.57;;;35.63;;
68757;SDS011;55747;51.998;4.466;2023-02-15T16:03:15;59.72;;;33.88;;
68757;SDS011;55747;51.998;4.466;2023-02-15T16:05:45;62.90;;;35.15;;
68757;SDS011;55747;51.998;4.466;2023-02-15T16:08:13;65.53;;;35.60;;
68757;SDS011;55747;51.998;4.466;2023-02-15T16:10:58;68.40;;;36.55;;
68757;SDS011;55747;51.998;4.466;2023-02-15T16:13:32;65.90;;;36.55;;
68757;SDS011;55747;51.998;4.466;2023-02-15T16:15:58;64.75;;;35.95;;
68757;SDS011;55747;51.998;4.466;2023-02-15T16:18:25;62.25;;;36.17;;
68757;SDS011;55747;51.998;4.466;2023-02-15T16:20:55;66.85;;;38.15;;
68757;SDS011;55747;51.998;4.466;2023-02-15T16:28:48;72.00;;;37.58;;
68757;SDS011;55747;51.998;4.466;2023-02-15T16:31:15;64.97;;;36.70;;
68757;SDS011;55747;51.998;4.466;2023-02-15T16:33:44;68.45;;;37.58;;
68757;SDS011;55747;51.998;4.466;2023-02-15T16:36:11;67.88;;;37.45;;
68757;SDS011;55747;51.998;4.466;2023-02-15T16:41:10;68.53;;;36.80;;
68757;SDS011;55747;51.998;4.466;2023-02-15T16:43:57;72.40;;;37.72;;
68757;SDS011;55747;51.998;4.466;2023-02-15T16:46:36;70.22;;;39.20;;
68757;SDS011;55747;51.998;4.466;2023-02-15T16:49:07;70.50;;;38.25;;
68757;SDS011;55747;51.998;4.466;2023-02-15T16:51:40;69.28;;;38.42;;
68757;SDS011;55747;51.998;4.466;2023-02-15T16:54:08;68.72;;;37.55;;
68757;SDS011;55747;51.998;4.466;2023-02-15T16:56:44;68.65;;;37.85;;
68757;SDS011;55747;51.998;4.466;2023-02-15T17:02:17;66.22;;;35.08;;
68757;SDS011;55747;51.998;4.466;2023-02-15T17:05:05;70.88;;;35.28;;
68757;SDS011;55747;51.998;4.466;2023-02-15T17:07:41;63.50;;;34.38;;
68757;SDS011;55747;51.998;4.466;2023-02-15T17:10:26;61.60;;;33.67;;
68757;SDS011;55747;51.998;4.466;2023-02-15T17:12:56;60.63;;;33.67;;
68757;SDS011;55747;51.998;4.466;2023-02-15T17:15:30;54.35;;;30.90;;
68757;SDS011;55747;51.998;4.466;2023-02-15T17:18:05;55.63;;;31.08;;